Time;durP1;ratioP1;P1;durP2;ratioP2;P2;SDS_P1;SDS_P2;PMS_P1;PMS_P2;Temp;Humidity;BMP_temperature;BMP_pressure;BME280_temperature;BME280_humidity;BME280_pressure;Samples;Min_cycle;Max_cycle;Signal;HPM_P1;HPM_P2
2021/09/06 00:00:40;;;;;;;;;;;;;;;;;;2090068;28;19924;-45
2021/09/06 00:01:41;;;;;;;;;;;;;;;;;;2089251;28;20344;-45
2021/09/06 00:02:42;;;;;;;;;;;;;;;;;;2085362;28;20382;-44
2021/09/06 00:03:43;;;;;;;;;;;;;;;;;;2082043;28;19952;-45
2021/09/06 00:04:44;;;;;;;;;;;;;;;;;;2084598;28;19927;-44
2021/09/06 00:05:45;;;;;;;;;;;;;;;;;;2084782;28;19921;-44
2021/09/06 00:06:45;;;;;;;;;;;;;;;;;;2081964;28;20388;-44
2021/09/06 00:07:47;;;;;;;;;;;;;;;;;;2085244;28;20591;-45
2021/09/06 00:08:47;;;;;;;;;;;;;;;;;;2088730;28;19956;-44
2021/09/06 00:09:49;;;;;;;;;;;;;;;;;;2090163;28;19931;-44
2021/09/06 00:10:51;;;;;;;;;;;;;;;;;;2088990;28;20000;-45
2021/09/06 00:11:52;;;;;;;;;;;;;;;;;;2083320;28;19964;-45
2021/09/06 00:12:52;;;;;;;;;;;;;;;;;;2081825;28;19928;-45
2021/09/06 00:13:53;;;;;;;;;;;;;;;;;;2085465;28;19920;-45
2021/09/06 00:14:54;;;;;;;;;;;;;;;;;;2081907;28;19925;-44
2021/09/06 00:15:55;;;;;;;;;;;;;;;;;;2081299;28;20294;-45
2021/09/06 00:16:55;;;;;;;;;;;;;;;;;;2087664;28;19927;-45
2021/09/06 00:17:56;;;;;;;;;;;;;;;;;;2081728;28;19925;-45
2021/09/06 00:18:57;;;;;;;;;;;;;;;;;;2082153;28;19979;-45
2021/09/06 00:19:58;;;;;;;;;;;;;;;;;;2087983;28;19936;-45
2021/09/06 00:21:01;;;;;;;;;;;;;;;;;;2090102;28;19931;-45
2021/09/06 00:22:02;;;;;;;;;;;;;;;;;;2089411;28;20100;-45
2021/09/06 00:23:02;;;;;;;;;;;;;;;;;;2084466;28;19921;-45
2021/09/06 00:24:03;;;;;;;;;;;;;;;;;;2081753;28;19925;-45
2021/09/06 00:25:04;;;;;;;;;;;;;;;;;;2085138;28;19950;-44
2021/09/06 00:26:05;;;;;;;;;;;;;;;;;;2087975;28;19921;-45
2021/09/06 00:27:06;;;;;;;;;;;;;;;;;;2089833;28;19928;-45
2021/09/06 00:28:07;;;;;;;;;;;;;;;;;;2088729;28;20006;-45
2021/09/06 00:29:07;;;;;;;;;;;;;;;;;;2083299;28;19975;-45
2021/09/06 00:30:08;;;;;;;;;;;;;;;;;;2081660;28;19931;-45
2021/09/06 00:31:12;;;;;;;;;;;;;;;;;;2085264;28;19921;-45
2021/09/06 00:32:13;;;;;;;;;;;;;;;;;;2089094;28;20331;-45
2021/09/06 00:33:14;;;;;;;;;;;;;;;;;;2090068;28;19943;-45
2021/09/06 00:34:15;;;;;;;;;;;;;;;;;;2087404;28;20354;-44
2021/09/06 00:35:16;;;;;;;;;;;;;;;;;;2089883;28;19973;-45
2021/09/06 00:36:17;;;;;;;;;;;;;;;;;;2089925;28;19928;-44
2021/09/06 00:37:18;;;;;;;;;;;;;;;;;;2087681;28;20352;-45
2021/09/06 00:38:19;;;;;;;;;;;;;;;;;;2081625;28;19921;-45
2021/09/06 00:39:20;;;;;;;;;;;;;;;;;;2081710;28;19952;-45
2021/09/06 00:40:21;;;;;;;;;;;;;;;;;;2087327;28;20354;-45
2021/09/06 00:41:24;;;;;;;;;;;;;;;;;;2090019;28;19927;-45
2021/09/06 00:42:25;;;;;;;;;;;;;;;;;;2089432;28;20449;-45
2021/09/06 00:43:26;;;;;;;;;;;;;;;;;;2087931;28;19921;-45
2021/09/06 00:44:27;;;;;;;;;;;;;;;;;;2089753;28;19925;-45
2021/09/06 00:45:28;;;;;;;;;;;;;;;;;;2089453;28;19921;-44
2021/09/06 00:46:28;;;;;;;;;;;;;;;;;;2086454;28;19929;-45
2021/09/06 00:47:29;;;;;;;;;;;;;;;;;;2081479;28;20278;-45
2021/09/06 00:48:31;;;;;;;;;;;;;;;;;;2082838;28;19979;-45
2021/09/06 00:49:32;;;;;;;;;;;;;;;;;;2085735;28;20016;-45
2021/09/06 00:50:33;;;;;;;;;;;;;;;;;;2080176;28;19982;-45
2021/09/06 00:51:33;;;;;;;;;;;;;;;;;;2083415;28;19921;-45
2021/09/06 00:52:34;;;;;;;;;;;;;;;;;;2085287;28;19921;-45
2021/09/06 00:53:35;;;;;;;;;;;;;;;;;;2081760;28;19928;-45
2021/09/06 00:54:36;;;;;;;;;;;;;;;;;;2083856;28;20419;-45
2021/09/06 00:55:37;;;;;;;;;;;;;;;;;;2084744;28;20397;-45
2021/09/06 00:56:37;;;;;;;;;;;;;;;;;;2081614;28;20076;-45
2021/09/06 00:57:38;;;;;;;;;;;;;;;;;;2084356;28;19920;-45
2021/09/06 00:58:39;;;;;;;;;;;;;;;;;;2088450;28;19921;-45
2021/09/06 00:59:40;;;;;;;;;;;;;;;;;;2089730;28;20297;-45
2021/09/06 01:00:41;;;;;;;;;;;;;;;;;;2088813;28;20358;-45
2021/09/06 01:01:42;;;;;;;;;;;;;;;;;;2088355;28;19920;-45
2021/09/06 01:02:43;;;;;;;;;;;;;;;;;;2089717;28;19920;-45
2021/09/06 01:03:43;;;;;;;;;;;;;;;;;;2088394;28;19927;-44
2021/09/06 01:04:45;;;;;;;;;;;;;;;;;;2089144;28;19927;-45
2021/09/06 01:05:45;;;;;;;;;;;;;;;;;;2089667;28;20289;-45
2021/09/06 01:06:46;;;;;;;;;;;;;;;;;;2087630;28;19920;-46
2021/09/06 01:07:47;;;;;;;;;;;;;;;;;;2088426;28;19927;-45
2021/09/06 01:08:48;;;;;;;;;;;;;;;;;;2089842;28;19924;-45
2021/09/06 01:09:48;;;;;;;;;;;;;;;;;;2087508;28;19933;-45
2021/09/06 01:10:49;;;;;;;;;;;;;;;;;;2089625;28;19921;-45
2021/09/06 01:11:50;;;;;;;;;;;;;;;;;;2089734;28;19921;-45
2021/09/06 01:12:51;;;;;;;;;;;;;;;;;;2087315;28;20007;-45
2021/09/06 01:13:52;;;;;;;;;;;;;;;;;;2089686;28;19920;-45
2021/09/06 01:14:53;;;;;;;;;;;;;;;;;;2089653;28;19932;-45
2021/09/06 01:15:53;;;;;;;;;;;;;;;;;;2087764;28;19928;-45
2021/09/06 01:16:54;;;;;;;;;;;;;;;;;;2081378;28;19921;-45
2021/09/06 01:17:55;;;;;;;;;;;;;;;;;;2081432;28;19922;-45
2021/09/06 01:18:56;;;;;;;;;;;;;;;;;;2087179;28;19920;-45
2021/09/06 01:19:56;;;;;;;;;;;;;;;;;;2081553;28;20283;-45
2021/09/06 01:20:57;;;;;;;;;;;;;;;;;;2081244;28;20350;-45
2021/09/06 01:21:58;;;;;;;;;;;;;;;;;;2087753;28;19958;-45
2021/09/06 01:22:59;;;;;;;;;;;;;;;;;;2089663;28;19967;-45
2021/09/06 01:24:00;;;;;;;;;;;;;;;;;;2089229;28;19925;-45
2021/09/06 01:25:01;;;;;;;;;;;;;;;;;;2087809;28;19929;-45
2021/09/06 01:26:02;;;;;;;;;;;;;;;;;;2089503;28;19924;-45
2021/09/06 01:27:03;;;;;;;;;;;;;;;;;;2089151;28;19921;-45
2021/09/06 01:28:04;;;;;;;;;;;;;;;;;;2087800;28;19967;-45
2021/09/06 01:29:04;;;;;;;;;;;;;;;;;;2089707;28;19927;-45
2021/09/06 01:30:05;;;;;;;;;;;;;;;;;;2088959;28;19921;-45
2021/09/06 01:31:06;;;;;;;;;;;;;;;;;;2088538;28;19974;-45
2021/09/06 01:32:07;;;;;;;;;;;;;;;;;;2089717;28;19944;-45
2021/09/06 01:33:08;;;;;;;;;;;;;;;;;;2088882;28;19928;-45
2021/09/06 01:34:09;;;;;;;;;;;;;;;;;;2088067;28;19924;-45
2021/09/06 01:35:09;;;;;;;;;;;;;;;;;;2089581;28;19920;-45
2021/09/06 01:36:11;;;;;;;;;;;;;;;;;;2088569;28;19921;-45
2021/09/06 01:37:12;;;;;;;;;;;;;;;;;;2084193;28;19921;-45
2021/09/06 01:38:13;;;;;;;;;;;;;;;;;;2081319;28;19932;-45
2021/09/06 01:39:13;;;;;;;;;;;;;;;;;;2084538;28;19930;-45
2021/09/06 01:40:15;;;;;;;;;;;;;;;;;;2083632;28;19921;-45
2021/09/06 01:41:15;;;;;;;;;;;;;;;;;;2081337;28;19921;-45
2021/09/06 01:42:16;;;;;;;;;;;;;;;;;;2085255;28;19920;-46
2021/09/06 01:43:17;;;;;;;;;;;;;;;;;;2083137;28;20285;-45
2021/09/06 01:44:18;;;;;;;;;;;;;;;;;;2081477;28;20363;-45
2021/09/06 01:45:19;;;;;;;;;;;;;;;;;;2085105;28;19927;-45
2021/09/06 01:46:19;;;;;;;;;;;;;;;;;;2089031;28;19921;-45
2021/09/06 01:47:20;;;;;;;;;;;;;;;;;;2089431;28;19925;-45
2021/09/06 01:48:21;;;;;;;;;;;;;;;;;;2087319;28;20392;-45
2021/09/06 01:49:22;;;;;;;;;;;;;;;;;;2089614;28;19974;-45
2021/09/06 01:50:24;;;;;;;;;;;;;;;;;;2087990;28;19935;-45
2021/09/06 01:51:24;;;;;;;;;;;;;;;;;;2086920;28;20326;-45
2021/09/06 01:52:25;;;;;;;;;;;;;;;;;;2081422;28;19928;-45
2021/09/06 01:53:26;;;;;;;;;;;;;;;;;;2081281;28;19924;-45
2021/09/06 01:54:27;;;;;;;;;;;;;;;;;;2086890;28;19983;-45
2021/09/06 01:55:28;;;;;;;;;;;;;;;;;;2081191;28;20394;-46
2021/09/06 01:56:29;;;;;;;;;;;;;;;;;;2081672;28;19960;-45
2021/09/06 01:57:30;;;;;;;;;;;;;;;;;;2088063;28;19947;-45
2021/09/06 01:58:30;;;;;;;;;;;;;;;;;;2091042;28;19921;-45
2021/09/06 01:59:31;;;;;;;;;;;;;;;;;;2090575;28;19974;-45
2021/09/06 02:00:32;;;;;;;;;;;;;;;;;;2088757;28;19924;-45
2021/09/06 02:01:33;;;;;;;;;;;;;;;;;;2090915;28;20046;-45
2021/09/06 02:02:34;;;;;;;;;;;;;;;;;;2090515;28;19943;-45
2021/09/06 02:03:35;;;;;;;;;;;;;;;;;;2088898;28;20370;-45
2021/09/06 02:04:36;;;;;;;;;;;;;;;;;;2090908;28;19927;-45
2021/09/06 02:05:37;;;;;;;;;;;;;;;;;;2090445;28;19931;-45
2021/09/06 02:06:38;;;;;;;;;;;;;;;;;;2086982;28;19971;-45
2021/09/06 02:07:38;;;;;;;;;;;;;;;;;;2082551;28;20382;-45
2021/09/06 02:08:39;;;;;;;;;;;;;;;;;;2084365;28;20416;-44
2021/09/06 02:09:40;;;;;;;;;;;;;;;;;;2089125;28;19921;-45
2021/09/06 02:10:41;;;;;;;;;;;;;;;;;;2090712;28;20374;-45
2021/09/06 02:11:42;;;;;;;;;;;;;;;;;;2090024;28;19929;-45
2021/09/06 02:12:43;;;;;;;;;;;;;;;;;;2088635;28;19924;-45
2021/09/06 02:13:43;;;;;;;;;;;;;;;;;;2090953;28;19925;-45
2021/09/06 02:14:44;;;;;;;;;;;;;;;;;;2090105;28;20309;-45
2021/09/06 02:15:45;;;;;;;;;;;;;;;;;;2085515;28;19921;-45
2021/09/06 02:16:46;;;;;;;;;;;;;;;;;;2082702;28;19974;-45
2021/09/06 02:17:46;;;;;;;;;;;;;;;;;;2085693;28;19927;-45
2021/09/06 02:18:47;;;;;;;;;;;;;;;;;;2084465;28;19979;-45
2021/09/06 02:19:48;;;;;;;;;;;;;;;;;;2082503;28;20164;-45
2021/09/06 02:20:49;;;;;;;;;;;;;;;;;;2086357;28;19924;-45
2021/09/06 02:21:50;;;;;;;;;;;;;;;;;;2089525;28;19928;-45
2021/09/06 02:22:51;;;;;;;;;;;;;;;;;;2090893;28;19921;-45
2021/09/06 02:23:51;;;;;;;;;;;;;;;;;;2089746;28;19935;-45
2021/09/06 02:24:52;;;;;;;;;;;;;;;;;;2083711;28;19921;-45
2021/09/06 02:25:53;;;;;;;;;;;;;;;;;;2082514;28;20067;-45
2021/09/06 02:26:54;;;;;;;;;;;;;;;;;;2086973;28;19975;-45
2021/09/06 02:27:55;;;;;;;;;;;;;;;;;;2083317;28;19921;-45
2021/09/06 02:28:56;;;;;;;;;;;;;;;;;;2082482;28;19992;-45
2021/09/06 02:29:56;;;;;;;;;;;;;;;;;;2086980;28;19921;-45
2021/09/06 02:30:57;;;;;;;;;;;;;;;;;;2090569;28;20419;-45
2021/09/06 02:31:58;;;;;;;;;;;;;;;;;;2090688;28;20397;-45
2021/09/06 02:32:59;;;;;;;;;;;;;;;;;;2089049;28;19932;-45
2021/09/06 02:34:00;;;;;;;;;;;;;;;;;;2082499;28;19931;-45
2021/09/06 02:35:01;;;;;;;;;;;;;;;;;;2082404;28;20036;-45
2021/09/06 02:36:02;;;;;;;;;;;;;;;;;;2087971;28;19925;-45
2021/09/06 02:37:03;;;;;;;;;;;;;;;;;;2090613;28;20298;-45
2021/09/06 02:38:03;;;;;;;;;;;;;;;;;;2090261;28;19928;-44
2021/09/06 02:39:04;;;;;;;;;;;;;;;;;;2088774;28;19967;-45
2021/09/06 02:40:05;;;;;;;;;;;;;;;;;;2090702;28;19920;-45
2021/09/06 02:41:06;;;;;;;;;;;;;;;;;;2090111;28;19921;-45
2021/09/06 02:42:07;;;;;;;;;;;;;;;;;;2087612;28;19927;-45
2021/09/06 02:43:08;;;;;;;;;;;;;;;;;;2082515;28;19921;-45
2021/09/06 02:44:08;;;;;;;;;;;;;;;;;;2083372;28;19925;-46
2021/09/06 02:45:09;;;;;;;;;;;;;;;;;;2087680;28;19928;-45
2021/09/06 02:46:10;;;;;;;;;;;;;;;;;;2090441;28;19924;-45
2021/09/06 02:47:11;;;;;;;;;;;;;;;;;;2090053;28;19921;-44
2021/09/06 02:48:12;;;;;;;;;;;;;;;;;;2086376;28;19921;-45
2021/09/06 02:49:12;;;;;;;;;;;;;;;;;;2082359;28;19975;-45
2021/09/06 02:50:13;;;;;;;;;;;;;;;;;;2083994;28;20365;-45
2021/09/06 02:51:14;;;;;;;;;;;;;;;;;;2086688;28;19920;-45
2021/09/06 02:52:15;;;;;;;;;;;;;;;;;;2090723;28;19921;-45
2021/09/06 02:53:16;;;;;;;;;;;;;;;;;;2089780;28;19928;-45
2021/09/06 02:54:16;;;;;;;;;;;;;;;;;;2085525;28;19921;-45
2021/09/06 02:55:17;;;;;;;;;;;;;;;;;;2082398;28;19932;-46
2021/09/06 02:56:18;;;;;;;;;;;;;;;;;;2085204;28;20415;-45
2021/09/06 02:57:19;;;;;;;;;;;;;;;;;;2089490;28;20424;-45
2021/09/06 02:58:19;;;;;;;;;;;;;;;;;;2090554;28;19921;-45
2021/09/06 02:59:20;;;;;;;;;;;;;;;;;;2089587;28;19924;-45
2021/09/06 03:00:22;;;;;;;;;;;;;;;;;;2089008;28;19920;-45
2021/09/06 03:01:23;;;;;;;;;;;;;;;;;;2090623;28;20008;-45
2021/09/06 03:02:25;;;;;;;;;;;;;;;;;;2089440;28;19920;-45
2021/09/06 03:03:27;;;;;;;;;;;;;;;;;;2083585;28;19927;-45
2021/09/06 03:04:28;;;;;;;;;;;;;;;;;;2082405;28;20282;-45
2021/09/06 03:05:29;;;;;;;;;;;;;;;;;;2087050;28;19927;-45
2021/09/06 03:06:30;;;;;;;;;;;;;;;;;;2082902;28;19921;-45
2021/09/06 03:07:31;;;;;;;;;;;;;;;;;;2081949;28;19925;-45
2021/09/06 03:08:31;;;;;;;;;;;;;;;;;;2086877;28;19924;-45
2021/09/06 03:09:32;;;;;;;;;;;;;;;;;;2082269;28;19925;-45
2021/09/06 03:10:33;;;;;;;;;;;;;;;;;;2082193;28;19920;-45
2021/09/06 03:11:34;;;;;;;;;;;;;;;;;;2087024;28;19925;-45
2021/09/06 03:12:34;;;;;;;;;;;;;;;;;;2090472;28;20263;-45
2021/09/06 03:13:35;;;;;;;;;;;;;;;;;;2090428;28;19935;-45
2021/09/06 03:14:36;;;;;;;;;;;;;;;;;;2088247;28;19921;-45
2021/09/06 03:15:37;;;;;;;;;;;;;;;;;;2082179;28;19971;-45
2021/09/06 03:16:38;;;;;;;;;;;;;;;;;;2081914;28;19924;-44
2021/09/06 03:17:39;;;;;;;;;;;;;;;;;;2088501;28;19925;-45
2021/09/06 03:18:39;;;;;;;;;;;;;;;;;;2090339;28;20427;-45
2021/09/06 03:19:40;;;;;;;;;;;;;;;;;;2090099;28;19974;-45
2021/09/06 03:20:41;;;;;;;;;;;;;;;;;;2088464;28;20282;-45
2021/09/06 03:21:42;;;;;;;;;;;;;;;;;;2090369;28;20381;-45
2021/09/06 03:22:43;;;;;;;;;;;;;;;;;;2090016;28;19927;-45
2021/09/06 03:23:44;;;;;;;;;;;;;;;;;;2088577;28;19928;-45
2021/09/06 03:24:44;;;;;;;;;;;;;;;;;;2090386;28;19927;-45
2021/09/06 03:25:45;;;;;;;;;;;;;;;;;;2089816;28;19971;-45
2021/09/06 03:26:46;;;;;;;;;;;;;;;;;;2084254;28;19921;-45
2021/09/06 03:27:47;;;;;;;;;;;;;;;;;;2082151;28;19976;-45
2021/09/06 03:28:47;;;;;;;;;;;;;;;;;;2086151;28;19932;-56
2021/09/06 03:29:48;;;;;;;;;;;;;;;;;;2083923;28;19929;-56
2021/09/06 03:30:49;;;;;;;;;;;;;;;;;;2082078;28;19925;-56
2021/09/06 03:31:50;;;;;;;;;;;;;;;;;;2086278;28;19924;-56
2021/09/06 03:32:51;;;;;;;;;;;;;;;;;;2083408;28;19928;-56
2021/09/06 03:33:52;;;;;;;;;;;;;;;;;;2082206;28;19927;-56
2021/09/06 03:34:53;;;;;;;;;;;;;;;;;;2086005;28;19920;-56
2021/09/06 03:35:54;;;;;;;;;;;;;;;;;;2090071;28;19927;-55
2021/09/06 03:36:55;;;;;;;;;;;;;;;;;;2090254;28;19925;-56
2021/09/06 03:37:55;;;;;;;;;;;;;;;;;;2088123;28;19921;-56
2021/09/06 03:38:56;;;;;;;;;;;;;;;;;;2090366;28;20440;-56
2021/09/06 03:39:57;;;;;;;;;;;;;;;;;;2090500;28;19928;-56
2021/09/06 03:40:58;;;;;;;;;;;;;;;;;;2087809;28;20057;-56
2021/09/06 03:41:58;;;;;;;;;;;;;;;;;;2090276;28;19929;-56
2021/09/06 03:42:59;;;;;;;;;;;;;;;;;;2090276;28;19921;-56
2021/09/06 03:44:00;;;;;;;;;;;;;;;;;;2088221;28;20316;-55
2021/09/06 03:45:01;;;;;;;;;;;;;;;;;;2081979;28;20004;-56
2021/09/06 03:46:02;;;;;;;;;;;;;;;;;;2081543;28;20457;-56
2021/09/06 03:47:03;;;;;;;;;;;;;;;;;;2088315;28;19928;-56
2021/09/06 03:48:04;;;;;;;;;;;;;;;;;;2090214;28;19921;-56
2021/09/06 03:49:05;;;;;;;;;;;;;;;;;;2089818;28;20203;-56
2021/09/06 03:50:06;;;;;;;;;;;;;;;;;;2087088;28;20023;-56
2021/09/06 03:51:06;;;;;;;;;;;;;;;;;;2080476;28;19921;-56
2021/09/06 03:52:07;;;;;;;;;;;;;;;;;;2082759;28;19945;-56
2021/09/06 03:53:08;;;;;;;;;;;;;;;;;;2088395;28;19931;-56
2021/09/06 03:54:09;;;;;;;;;;;;;;;;;;2090243;28;19920;-56
2021/09/06 03:55:10;;;;;;;;;;;;;;;;;;2089812;28;20361;-56
2021/09/06 03:56:10;;;;;;;;;;;;;;;;;;2088404;28;19920;-56
2021/09/06 03:57:11;;;;;;;;;;;;;;;;;;2090324;28;19948;-56
2021/09/06 03:58:12;;;;;;;;;;;;;;;;;;2089417;28;19942;-56
2021/09/06 03:59:13;;;;;;;;;;;;;;;;;;2088612;28;19920;-56
2021/09/06 04:00:14;;;;;;;;;;;;;;;;;;2090116;28;19967;-56
2021/09/06 04:01:15;;;;;;;;;;;;;;;;;;2089336;28;19927;-56
2021/09/06 04:02:16;;;;;;;;;;;;;;;;;;2084964;28;20027;-56
2021/09/06 04:03:17;;;;;;;;;;;;;;;;;;2081851;28;20366;-56
2021/09/06 04:04:17;;;;;;;;;;;;;;;;;;2084865;28;20278;-56
2021/09/06 04:05:18;;;;;;;;;;;;;;;;;;2084408;28;19928;-56
2021/09/06 04:06:19;;;;;;;;;;;;;;;;;;2082000;28;19932;-56
2021/09/06 04:07:20;;;;;;;;;;;;;;;;;;2085485;28;19955;-56
2021/09/06 04:08:24;;;;;;;;;;;;;;;;;;2088708;28;19921;-56
2021/09/06 04:09:25;;;;;;;;;;;;;;;;;;2090111;28;20338;-56
2021/09/06 04:10:26;;;;;;;;;;;;;;;;;;2089021;28;19928;-56
2021/09/06 04:11:27;;;;;;;;;;;;;;;;;;2082785;28;19921;-56
2021/09/06 04:12:27;;;;;;;;;;;;;;;;;;2081799;28;19920;-56
2021/09/06 04:13:28;;;;;;;;;;;;;;;;;;2085871;28;19921;-56
2021/09/06 04:14:32;;;;;;;;;;;;;;;;;;2089961;28;19959;-57
2021/09/06 04:15:33;;;;;;;;;;;;;;;;;;2090096;28;20015;-56
2021/09/06 04:16:33;;;;;;;;;;;;;;;;;;2088423;28;19921;-57
2021/09/06 04:17:35;;;;;;;;;;;;;;;;;;2081992;28;19943;-56
2021/09/06 04:18:35;;;;;;;;;;;;;;;;;;2081823;28;19921;-56
2021/09/06 04:19:36;;;;;;;;;;;;;;;;;;2087701;28;19974;-56
2021/09/06 04:20:37;;;;;;;;;;;;;;;;;;2090198;28;19921;-56
2021/09/06 04:21:38;;;;;;;;;;;;;;;;;;2089573;28;19924;-56
2021/09/06 04:22:39;;;;;;;;;;;;;;;;;;2087647;28;19928;-56
2021/09/06 04:23:42;;;;;;;;;;;;;;;;;;2089925;28;20335;-56
2021/09/06 04:24:43;;;;;;;;;;;;;;;;;;2089666;28;20007;-56
2021/09/06 04:25:44;;;;;;;;;;;;;;;;;;2088053;28;19920;-56
2021/09/06 04:26:44;;;;;;;;;;;;;;;;;;2090034;28;19971;-56
2021/09/06 04:27:45;;;;;;;;;;;;;;;;;;2089323;28;19920;-56
2021/09/06 04:28:46;;;;;;;;;;;;;;;;;;2088370;28;19921;-56
2021/09/06 04:29:47;;;;;;;;;;;;;;;;;;2089874;28;19921;-57
2021/09/06 04:30:48;;;;;;;;;;;;;;;;;;2089405;28;20259;-56
2021/09/06 04:31:49;;;;;;;;;;;;;;;;;;2088206;28;20271;-56
2021/09/06 04:32:49;;;;;;;;;;;;;;;;;;2089953;28;19925;-56
2021/09/06 04:33:50;;;;;;;;;;;;;;;;;;2089131;28;19921;-56
2021/09/06 04:34:51;;;;;;;;;;;;;;;;;;2088447;28;19974;-56
2021/09/06 04:35:52;;;;;;;;;;;;;;;;;;2089937;28;19928;-56
2021/09/06 04:36:53;;;;;;;;;;;;;;;;;;2089049;28;20333;-56
2021/09/06 04:37:53;;;;;;;;;;;;;;;;;;2089723;28;19921;-56
2021/09/06 04:38:54;;;;;;;;;;;;;;;;;;2089977;28;20029;-56
2021/09/06 04:39:55;;;;;;;;;;;;;;;;;;2089066;28;19973;-56
2021/09/06 04:40:56;;;;;;;;;;;;;;;;;;2088426;28;19920;-56
2021/09/06 04:41:57;;;;;;;;;;;;;;;;;;2089855;28;19920;-56
2021/09/06 04:42:58;;;;;;;;;;;;;;;;;;2088908;28;19974;-56
2021/09/06 04:43:58;;;;;;;;;;;;;;;;;;2083428;28;20187;-56
2021/09/06 04:44:59;;;;;;;;;;;;;;;;;;2081738;28;20362;-56
2021/09/06 04:46:00;;;;;;;;;;;;;;;;;;2085254;28;19924;-56
2021/09/06 04:47:01;;;;;;;;;;;;;;;;;;2088633;28;19920;-56
2021/09/06 04:48:02;;;;;;;;;;;;;;;;;;2089864;28;19931;-56
2021/09/06 04:49:04;;;;;;;;;;;;;;;;;;2088821;28;19928;-56
2021/09/06 04:50:05;;;;;;;;;;;;;;;;;;2082184;28;20063;-56
2021/09/06 04:51:06;;;;;;;;;;;;;;;;;;2080121;28;20013;-56
2021/09/06 04:52:06;;;;;;;;;;;;;;;;;;2087211;28;19921;-56
2021/09/06 04:53:07;;;;;;;;;;;;;;;;;;2081562;28;20295;-56
2021/09/06 04:54:08;;;;;;;;;;;;;;;;;;2081738;28;19920;-57
2021/09/06 04:55:09;;;;;;;;;;;;;;;;;;2087199;28;19972;-56
2021/09/06 04:56:10;;;;;;;;;;;;;;;;;;2081644;28;19921;-56
2021/09/06 04:57:11;;;;;;;;;;;;;;;;;;2081524;28;19921;-56
2021/09/06 04:58:11;;;;;;;;;;;;;;;;;;2087231;28;19966;-57
2021/09/06 04:59:12;;;;;;;;;;;;;;;;;;2081640;28;19921;-56
2021/09/06 05:00:14;;;;;;;;;;;;;;;;;;2081570;28;19921;-56
2021/09/06 05:01:15;;;;;;;;;;;;;;;;;;2087825;28;19920;-56
2021/09/06 05:02:16;;;;;;;;;;;;;;;;;;2089720;28;19970;-56
2021/09/06 05:03:17;;;;;;;;;;;;;;;;;;2089471;28;20365;-56
2021/09/06 05:04:19;;;;;;;;;;;;;;;;;;2087746;28;20003;-56
2021/09/06 05:05:19;;;;;;;;;;;;;;;;;;2089779;28;20293;-56
2021/09/06 05:06:20;;;;;;;;;;;;;;;;;;2089206;28;20384;-56
2021/09/06 05:07:21;;;;;;;;;;;;;;;;;;2087993;28;19920;-56
2021/09/06 05:08:22;;;;;;;;;;;;;;;;;;2089627;28;19927;-56
2021/09/06 05:09:23;;;;;;;;;;;;;;;;;;2088947;28;19921;-56
2021/09/06 05:10:24;;;;;;;;;;;;;;;;;;2088058;28;19928;-56
2021/09/06 05:11:24;;;;;;;;;;;;;;;;;;2089916;28;20068;-56
2021/09/06 05:12:26;;;;;;;;;;;;;;;;;;2088902;28;19932;-56
2021/09/06 05:13:28;;;;;;;;;;;;;;;;;;2088147;28;19927;-57
2021/09/06 05:14:28;;;;;;;;;;;;;;;;;;2089676;28;20003;-57
2021/09/06 05:15:29;;;;;;;;;;;;;;;;;;2088577;28;20358;-57
2021/09/06 05:16:30;;;;;;;;;;;;;;;;;;2089410;28;19927;-57
2021/09/06 05:17:31;;;;;;;;;;;;;;;;;;2089636;28;19921;-57
2021/09/06 05:18:32;;;;;;;;;;;;;;;;;;2088869;28;20411;-57
2021/09/06 05:19:33;;;;;;;;;;;;;;;;;;2088180;28;20294;-57
2021/09/06 05:20:34;;;;;;;;;;;;;;;;;;2089598;28;19924;-56
2021/09/06 05:21:34;;;;;;;;;;;;;;;;;;2088514;28;19921;-57
2021/09/06 05:22:35;;;;;;;;;;;;;;;;;;2083154;28;19921;-57
2021/09/06 05:23:36;;;;;;;;;;;;;;;;;;2081575;28;19921;-57
2021/09/06 05:24:37;;;;;;;;;;;;;;;;;;2085058;28;19920;-57
2021/09/06 05:25:38;;;;;;;;;;;;;;;;;;2088455;28;19970;-57
2021/09/06 05:26:39;;;;;;;;;;;;;;;;;;2089585;28;20007;-57
2021/09/06 05:27:40;;;;;;;;;;;;;;;;;;2087533;28;19935;-57
2021/09/06 05:28:41;;;;;;;;;;;;;;;;;;2089464;28;19921;-57
2021/09/06 05:29:41;;;;;;;;;;;;;;;;;;2089614;28;19921;-57
2021/09/06 05:30:42;;;;;;;;;;;;;;;;;;2086262;28;19927;-57
2021/09/06 05:31:43;;;;;;;;;;;;;;;;;;2082183;28;20015;-56
2021/09/06 05:32:44;;;;;;;;;;;;;;;;;;2083710;28;19921;-57
2021/09/06 05:33:45;;;;;;;;;;;;;;;;;;2089267;28;19921;-57
2021/09/06 05:34:46;;;;;;;;;;;;;;;;;;2091206;28;19921;-57
2021/09/06 05:35:46;;;;;;;;;;;;;;;;;;2090487;28;19921;-57
2021/09/06 05:36:47;;;;;;;;;;;;;;;;;;2089204;28;20285;-57
2021/09/06 05:37:48;;;;;;;;;;;;;;;;;;2091188;28;20007;-57
2021/09/06 05:38:49;;;;;;;;;;;;;;;;;;2090343;28;19925;-57
2021/09/06 05:39:50;;;;;;;;;;;;;;;;;;2089429;28;20003;-57
2021/09/06 05:40:51;;;;;;;;;;;;;;;;;;2091173;28;19920;-57
2021/09/06 05:41:52;;;;;;;;;;;;;;;;;;2090172;28;20290;-57
2021/09/06 05:42:53;;;;;;;;;;;;;;;;;;2089623;28;19945;-57
2021/09/06 05:43:53;;;;;;;;;;;;;;;;;;2091140;28;20328;-57
2021/09/06 05:44:54;;;;;;;;;;;;;;;;;;2090119;28;19943;-57
2021/09/06 05:45:55;;;;;;;;;;;;;;;;;;2085430;28;20188;-57
2021/09/06 05:46:56;;;;;;;;;;;;;;;;;;2082833;28;19928;-57
2021/09/06 05:47:56;;;;;;;;;;;;;;;;;;2086478;28;20329;-57
2021/09/06 05:48:57;;;;;;;;;;;;;;;;;;2089563;28;19928;-57
2021/09/06 05:49:58;;;;;;;;;;;;;;;;;;2091193;28;20324;-57
2021/09/06 05:50:59;;;;;;;;;;;;;;;;;;2086901;28;19924;-57
2021/09/06 05:52:00;;;;;;;;;;;;;;;;;;2090305;28;19924;-57
2021/09/06 05:53:01;;;;;;;;;;;;;;;;;;2091108;28;19925;-57
2021/09/06 05:54:02;;;;;;;;;;;;;;;;;;2088754;28;20286;-57
2021/09/06 05:55:03;;;;;;;;;;;;;;;;;;2090903;28;19932;-57
2021/09/06 05:56:04;;;;;;;;;;;;;;;;;;2090766;28;19927;-57
2021/09/06 05:57:05;;;;;;;;;;;;;;;;;;2088799;28;19920;-58
2021/09/06 05:58:05;;;;;;;;;;;;;;;;;;2090886;28;20125;-58
2021/09/06 05:59:06;;;;;;;;;;;;;;;;;;2090958;28;19921;-57
2021/09/06 06:00:07;;;;;;;;;;;;;;;;;;2089468;28;19974;-58
2021/09/06 06:01:08;;;;;;;;;;;;;;;;;;2082515;28;19975;-58
2021/09/06 06:02:09;;;;;;;;;;;;;;;;;;2082672;28;20398;-57
2021/09/06 06:03:10;;;;;;;;;;;;;;;;;;2088170;28;19931;-57
2021/09/06 06:04:11;;;;;;;;;;;;;;;;;;2090847;28;19920;-59
2021/09/06 06:05:12;;;;;;;;;;;;;;;;;;2090416;28;20423;-45
2021/09/06 06:06:17;;;;;;;;;;;;;;;;;;2088238;28;19921;-44
2021/09/06 06:07:17;;;;;;;;;;;;;;;;;;2082643;28;20016;-45
2021/09/06 06:08:18;;;;;;;;;;;;;;;;;;2083540;28;19928;-57
2021/09/06 06:09:19;;;;;;;;;;;;;;;;;;2087465;28;19925;-58
2021/09/06 06:10:20;;;;;;;;;;;;;;;;;;2082669;28;20294;-57
2021/09/06 06:11:23;;;;;;;;;;;;;;;;;;2084289;28;20024;-57
2021/09/06 06:12:27;;;;;;;;;;;;;;;;;;2089880;28;20377;-57
2021/09/06 06:13:28;;;;;;;;;;;;;;;;;;2090804;28;20353;-57
2021/09/06 06:14:29;;;;;;;;;;;;;;;;;;2090038;28;19996;-58
2021/09/06 06:15:30;;;;;;;;;;;;;;;;;;2083765;28;19932;-57
2021/09/06 06:16:31;;;;;;;;;;;;;;;;;;2082639;28;19967;-58
2021/09/06 06:17:31;;;;;;;;;;;;;;;;;;2087501;28;19920;-57
2021/09/06 06:18:32;;;;;;;;;;;;;;;;;;2083209;28;20391;-57
2021/09/06 06:19:33;;;;;;;;;;;;;;;;;;2082578;28;19995;-57
2021/09/06 06:20:34;;;;;;;;;;;;;;;;;;2086864;28;20408;-57
2021/09/06 06:21:35;;;;;;;;;;;;;;;;;;2090599;28;19920;-57
2021/09/06 06:22:36;;;;;;;;;;;;;;;;;;2090764;28;19927;-57
2021/09/06 06:23:37;;;;;;;;;;;;;;;;;;2088555;28;19936;-57
2021/09/06 06:24:37;;;;;;;;;;;;;;;;;;2090782;28;20352;-57
2021/09/06 06:25:38;;;;;;;;;;;;;;;;;;2090720;28;20378;-56
2021/09/06 06:26:39;;;;;;;;;;;;;;;;;;2088409;28;19921;-57
2021/09/06 06:27:42;;;;;;;;;;;;;;;;;;2090673;28;19943;-56
2021/09/06 06:28:43;;;;;;;;;;;;;;;;;;2090358;28;19991;-56
2021/09/06 06:29:44;;;;;;;;;;;;;;;;;;2087987;28;20328;-56
2021/09/06 06:30:45;;;;;;;;;;;;;;;;;;2082515;28;20320;-56
2021/09/06 06:31:46;;;;;;;;;;;;;;;;;;2083249;28;19996;-58
2021/09/06 06:32:47;;;;;;;;;;;;;;;;;;2088812;28;19920;-56
2021/09/06 06:33:48;;;;;;;;;;;;;;;;;;2090689;28;19921;-57
2021/09/06 06:34:48;;;;;;;;;;;;;;;;;;2090086;28;19921;-56
2021/09/06 06:35:49;;;;;;;;;;;;;;;;;;2086865;28;19956;-56
2021/09/06 06:36:50;;;;;;;;;;;;;;;;;;2082554;28;20362;-56
2021/09/06 06:37:51;;;;;;;;;;;;;;;;;;2084439;28;19928;-56
2021/09/06 06:38:52;;;;;;;;;;;;;;;;;;2086212;28;20333;-57
2021/09/06 06:39:53;;;;;;;;;;;;;;;;;;2082507;28;19963;-56
2021/09/06 06:40:54;;;;;;;;;;;;;;;;;;2084385;28;19974;-57
2021/09/06 06:41:55;;;;;;;;;;;;;;;;;;2089139;28;19928;-57
2021/09/06 06:42:55;;;;;;;;;;;;;;;;;;2090384;28;19920;-57
2021/09/06 06:43:56;;;;;;;;;;;;;;;;;;2089886;28;19921;-57
2021/09/06 06:44:57;;;;;;;;;;;;;;;;;;2089126;28;19920;-57
2021/09/06 06:45:58;;;;;;;;;;;;;;;;;;2090523;28;19924;-57
2021/09/06 06:46:59;;;;;;;;;;;;;;;;;;2089775;28;19924;-57
2021/09/06 06:48:00;;;;;;;;;;;;;;;;;;2089021;28;19924;-57
2021/09/06 06:49:00;;;;;;;;;;;;;;;;;;2090630;28;19924;-57
2021/09/06 06:50:01;;;;;;;;;;;;;;;;;;2089509;28;19920;-57
2021/09/06 06:51:02;;;;;;;;;;;;;;;;;;2082671;28;20285;-57
2021/09/06 06:52:03;;;;;;;;;;;;;;;;;;2082463;28;20494;-57
2021/09/06 06:53:04;;;;;;;;;;;;;;;;;;2086209;28;19928;-57
2021/09/06 06:54:05;;;;;;;;;;;;;;;;;;2090087;28;19943;-57
2021/09/06 06:55:06;;;;;;;;;;;;;;;;;;2090655;28;19927;-57
2021/09/06 06:56:07;;;;;;;;;;;;;;;;;;2087933;28;19921;-58